Terminal Aerodrome Forecast
Issued by NWS

Home | Current Version | Previous Version | Text Only | Print | Product List | Glossary On
Versions: 1 2 3 4 5 6 7 8 9 10 11 12
000
FTUS43 KMQT 290534
TAFSAW
TAF
KSAW 290534Z 2906/3006 01004KT P6SM SCT200
     FM290900 02004KT 3SM BR BKN004
     FM291400 03004KT P6SM SCT004
     FM291500 04005KT P6SM SCT200
     FM292100 06006KT P6SM BKN150=

USA.gov is the U.S. government's official web portal to all federal, state and local government web resources and services.